1L4 weather

Kidwell Airport
Cal Nev Ari, Nevada, United States

Public forecast

Using degrees Fahrenheit for public forecast. Weather courtesy of forecast.io.

METAR (pilot weather report)

Closest report is Laughlin Bullhead International Airport, 18.2 nm (33.6 km) ESE. Retrieved 2019/03/26 12:35 UTC (1 hour ago):

KIFP 261235Z AUTO 00000KT 10SM CLR 13/M04 A2997 RMK AO2

TAF (pilot weather forecast)

Closest forecast is Laughlin Bullhead International Airport, 18.2 nm (33.6 km) ESE. Retrieved 2019/03/26 12:39 UTC (1 hour ago):

TAF KIFP 261136Z 2612/2712 VRB05KT P6SM BKN250 FM261900 19012KT P6SM BKN250 FM270200 17008KT P6SM SCT250